Time;durP1;ratioP1;P1;durP2;ratioP2;P2;SDS_P1;SDS_P2;PMS_P1;PMS_P2;Temp;Humidity;BMP_temperature;BMP_pressure;BME280_temperature;BME280_humidity;BME280_pressure;Samples;Min_cycle;Max_cycle;Signal;HPM_P1;HPM_P2
2021/04/01 00:01:54;;;;;;;;;;;14.20;99.90;;;;;;5083910;28;19913;-71
2021/04/01 00:04:20;;;;;;;;;;;14.20;99.90;;;;;;5083542;28;19904;-72
2021/04/01 00:06:45;;;;;;;;;;;14.10;99.90;;;;;;5069053;28;19923;-71
2021/04/01 00:09:11;;;;;;;;;;;14.10;99.90;;;;;;5082491;28;19946;-74
2021/04/01 00:11:37;;;;;;;;;;;14.00;99.90;;;;;;5076292;28;19961;-72
2021/04/01 00:14:04;;;;;;;;;;;14.00;99.90;;;;;;5083131;28;19904;-71
2021/04/01 00:16:34;;;;;;;;;;;14.00;99.90;;;;;;5086023;28;19929;-72
2021/04/01 00:19:00;;;;;;;;;;;13.90;99.90;;;;;;5084123;28;20203;-71
2021/04/01 00:21:26;;;;;;;;;;;13.90;99.90;;;;;;5094056;28;20272;-72
2021/04/01 00:23:51;;;;;;;;;;;13.80;99.90;;;;;;5094806;28;19904;-70
2021/04/01 00:26:17;;;;;;;;;;;13.70;99.90;;;;;;5094589;28;19952;-72
2021/04/01 00:28:42;;;;;;;;;;;13.60;99.90;;;;;;5094137;28;19904;-72
2021/04/01 00:31:08;;;;;;;;;;;13.60;99.90;;;;;;5069301;28;19944;-71
2021/04/01 00:33:34;;;;;;;;;;;13.60;99.90;;;;;;5091450;28;19946;-70
2021/04/01 00:35:59;;;;;;;;;;;13.50;99.90;;;;;;5088252;28;19908;-72
2021/04/01 00:38:25;;;;;;;;;;;13.40;99.90;;;;;;5081035;28;20058;-74
2021/04/01 00:40:51;;;;;;;;;;;13.40;99.90;;;;;;5056749;28;20320;-71
2021/04/01 00:43:16;;;;;;;;;;;13.50;99.90;;;;;;5089925;28;20059;-70
2021/04/01 00:45:42;;;;;;;;;;;13.50;99.90;;;;;;5084229;28;19912;-70
2021/04/01 00:48:08;;;;;;;;;;;13.50;99.90;;;;;;5083525;28;20379;-68
2021/04/01 00:50:33;;;;;;;;;;;13.50;99.90;;;;;;5093065;28;19908;-72
2021/04/01 00:52:59;;;;;;;;;;;13.60;99.90;;;;;;5083312;28;19957;-69
2021/04/01 00:55:25;;;;;;;;;;;13.60;99.90;;;;;;5083451;28;20049;-70
2021/04/01 00:57:51;;;;;;;;;;;13.50;99.90;;;;;;5082238;28;19912;-70
2021/04/01 01:00:21;;;;;;;;;;;13.50;99.90;;;;;;5078017;28;19908;-69
2021/04/01 01:02:47;;;;;;;;;;;13.60;99.90;;;;;;5078343;28;19912;-70
2021/04/01 01:05:13;;;;;;;;;;;13.60;99.90;;;;;;5091723;28;19903;-70
2021/04/01 01:07:39;;;;;;;;;;;13.60;99.90;;;;;;5077583;28;19917;-70
2021/04/01 01:10:06;;;;;;;;;;;13.60;99.90;;;;;;5092064;28;19907;-69
2021/04/01 01:12:32;;;;;;;;;;;13.50;99.90;;;;;;5089753;28;19931;-70
2021/04/01 01:14:57;;;;;;;;;;;13.50;99.90;;;;;;5073027;28;20346;-69
2021/04/01 01:17:23;;;;;;;;;;;13.50;99.90;;;;;;5090351;28;19958;-69
2021/04/01 01:19:52;;;;;;;;;;;13.50;99.90;;;;;;5084136;28;19910;-70
2021/04/01 01:22:19;;;;;;;;;;;13.50;99.90;;;;;;5094222;28;20274;-71
2021/04/01 01:24:45;;;;;;;;;;;13.50;99.90;;;;;;5094572;28;20003;-70
2021/04/01 01:27:10;;;;;;;;;;;13.40;99.90;;;;;;5094747;28;19960;-69
2021/04/01 01:29:36;;;;;;;;;;;13.40;99.90;;;;;;5079699;28;20365;-69
2021/04/01 01:32:02;;;;;;;;;;;13.30;99.90;;;;;;5094893;28;19927;-69
2021/04/01 01:34:28;;;;;;;;;;;13.30;99.90;;;;;;5079875;28;20259;-70
2021/04/01 01:36:54;;;;;;;;;;;13.20;99.90;;;;;;5086638;28;19904;-69
2021/04/01 01:39:19;;;;;;;;;;;13.10;99.90;;;;;;5087081;28;19957;-69
2021/04/01 01:41:45;;;;;;;;;;;13.10;99.90;;;;;;5079448;28;19908;-69
2021/04/01 01:44:10;;;;;;;;;;;13.00;99.90;;;;;;5094328;28;19904;-70
2021/04/01 01:46:36;;;;;;;;;;;13.00;99.90;;;;;;5093832;28;19916;-69
2021/04/01 01:49:02;;;;;;;;;;;13.00;99.90;;;;;;5093693;28;19911;-70
2021/04/01 01:51:28;;;;;;;;;;;13.10;99.90;;;;;;5093873;28;19911;-69
2021/04/01 01:53:54;;;;;;;;;;;13.10;99.90;;;;;;5094010;28;19904;-69
2021/04/01 01:56:24;;;;;;;;;;;13.10;99.90;;;;;;5093921;28;20368;-69
2021/04/01 01:58:57;;;;;;;;;;;13.00;99.90;;;;;;5093727;28;19957;-71
2021/04/01 02:01:24;;;;;;;;;;;13.00;99.90;;;;;;5094142;28;19957;-71
2021/04/01 02:03:50;;;;;;;;;;;13.10;99.90;;;;;;5093758;28;19911;-71
2021/04/01 02:06:19;;;;;;;;;;;13.00;99.90;;;;;;5075927;28;20040;-69
2021/04/01 02:08:46;;;;;;;;;;;12.90;99.90;;;;;;5093916;28;19932;-71
2021/04/01 02:11:11;;;;;;;;;;;12.80;99.90;;;;;;5093444;28;19911;-69
2021/04/01 02:13:37;;;;;;;;;;;12.80;99.90;;;;;;5093554;28;19908;-71
2021/04/01 02:16:03;;;;;;;;;;;12.80;99.90;;;;;;5093700;28;19911;-69
2021/04/01 02:18:29;;;;;;;;;;;12.80;99.90;;;;;;5093923;28;19965;-72
2021/04/01 02:20:57;;;;;;;;;;;12.90;99.90;;;;;;5093675;28;19912;-71
2021/04/01 02:23:22;;;;;;;;;;;12.90;99.90;;;;;;5093608;28;19904;-71
2021/04/01 02:25:48;;;;;;;;;;;12.90;99.90;;;;;;5093691;28;20338;-71
2021/04/01 02:28:14;;;;;;;;;;;12.80;99.90;;;;;;5093518;28;19915;-74
2021/04/01 02:30:41;;;;;;;;;;;12.80;99.90;;;;;;5075662;28;19955;-72
2021/04/01 02:33:06;;;;;;;;;;;12.80;99.90;;;;;;5075566;28;19998;-73
2021/04/01 02:35:32;;;;;;;;;;;12.70;99.90;;;;;;5093718;28;20385;-71
2021/04/01 02:37:58;;;;;;;;;;;12.80;99.90;;;;;;5093018;28;19911;-70
2021/04/01 02:40:24;;;;;;;;;;;12.80;99.90;;;;;;5093382;28;20346;-70
2021/04/01 02:42:50;;;;;;;;;;;12.80;99.90;;;;;;5093680;28;20393;-71
2021/04/01 02:45:15;;;;;;;;;;;12.80;99.90;;;;;;5092923;28;19958;-71
2021/04/01 02:47:41;;;;;;;;;;;12.80;99.90;;;;;;5082317;28;19913;-71
2021/04/01 02:50:08;;;;;;;;;;;12.80;99.90;;;;;;5091268;28;19912;-72
2021/04/01 02:52:34;;;;;;;;;;;12.80;99.90;;;;;;5087218;28;19904;-71
2021/04/01 02:55:00;;;;;;;;;;;12.80;99.90;;;;;;5097470;28;19950;-71
2021/04/01 02:57:25;;;;;;;;;;;12.80;99.90;;;;;;5097611;28;19904;-72
2021/04/01 02:59:51;;;;;;;;;;;12.70;99.90;;;;;;5096909;28;19912;-70
2021/04/01 03:02:18;;;;;;;;;;;12.60;99.90;;;;;;5097327;28;19911;-72
2021/04/01 03:04:44;;;;;;;;;;;12.50;99.90;;;;;;5079695;28;19904;-71
2021/04/01 03:07:09;;;;;;;;;;;12.50;99.90;;;;;;5082515;28;19931;-71
2021/04/01 03:09:35;;;;;;;;;;;12.50;99.90;;;;;;5097417;28;19912;-70
2021/04/01 03:12:01;;;;;;;;;;;12.50;99.90;;;;;;5096976;28;19910;-71
2021/04/01 03:14:27;;;;;;;;;;;12.60;99.90;;;;;;5078783;28;19928;-70
2021/04/01 03:16:52;;;;;;;;;;;12.60;99.90;;;;;;5097452;28;19904;-68
2021/04/01 03:19:18;;;;;;;;;;;12.60;99.90;;;;;;5097093;28;20346;-69
2021/04/01 03:21:45;;;;;;;;;;;12.60;99.90;;;;;;5096838;28;19904;-69
2021/04/01 03:24:11;;;;;;;;;;;12.60;99.90;;;;;;5096975;28;19966;-70
2021/04/01 03:26:36;;;;;;;;;;;12.60;99.90;;;;;;5077978;28;20357;-69
2021/04/01 03:29:02;;;;;;;;;;;12.50;99.90;;;;;;5084375;28;19962;-69
2021/04/01 03:31:28;;;;;;;;;;;12.40;99.90;;;;;;5077002;28;20293;-70
2021/04/01 03:33:54;;;;;;;;;;;12.30;99.90;;;;;;5096335;28;19911;-70
2021/04/01 03:36:20;;;;;;;;;;;12.30;99.90;;;;;;5096734;28;19959;-71
2021/04/01 03:38:46;;;;;;;;;;;12.20;99.90;;;;;;5096806;28;19954;-69
2021/04/01 03:41:12;;;;;;;;;;;12.20;99.90;;;;;;5078119;28;19908;-69
2021/04/01 03:43:38;;;;;;;;;;;12.30;99.90;;;;;;5096424;28;19949;-69
2021/04/01 03:46:04;;;;;;;;;;;12.30;99.90;;;;;;5096606;28;20337;-71
2021/04/01 03:48:30;;;;;;;;;;;12.20;99.90;;;;;;5095965;28;20003;-69
2021/04/01 03:50:55;;;;;;;;;;;12.10;99.90;;;;;;5078520;28;19973;-70
2021/04/01 03:53:21;;;;;;;;;;;12.00;99.90;;;;;;5081898;28;19912;-71
2021/04/01 03:55:47;;;;;;;;;;;11.90;99.90;;;;;;5095972;28;19990;-70
2021/04/01 04:06:36;;;;;;;;;;;11.50;99.90;;;;;;5088120;28;20354;-68
2021/04/01 04:09:28;;;;;;;;;;;11.50;99.90;;;;;;5085197;28;19915;-70
2021/04/01 04:12:05;;;;;;;;;;;11.40;99.90;;;;;;5089993;28;19957;-71
2021/04/01 04:14:35;;;;;;;;;;;11.30;99.90;;;;;;5088576;28;19904;-71
2021/04/01 04:17:00;;;;;;;;;;;11.30;99.90;;;;;;5089636;28;19911;-72
2021/04/01 04:19:26;;;;;;;;;;;11.30;99.90;;;;;;5088467;28;19904;-70
2021/04/01 04:21:51;;;;;;;;;;;11.20;99.90;;;;;;5095728;28;20405;-71
2021/04/01 04:24:17;;;;;;;;;;;11.20;99.90;;;;;;5095660;28;20049;-70
2021/04/01 04:26:43;;;;;;;;;;;11.20;99.90;;;;;;5095783;28;20010;-69
2021/04/01 04:29:08;;;;;;;;;;;11.10;99.90;;;;;;5077703;28;20361;-71
2021/04/01 04:31:34;;;;;;;;;;;11.10;99.90;;;;;;5095387;28;19904;-71
2021/04/01 04:34:00;;;;;;;;;;;11.10;99.90;;;;;;5095438;28;19904;-70
2021/04/01 04:36:25;;;;;;;;;;;11.10;99.90;;;;;;5095254;28;19914;-69
2021/04/01 04:38:51;;;;;;;;;;;11.10;99.90;;;;;;5095287;28;19904;-70
2021/04/01 04:41:17;;;;;;;;;;;11.00;99.90;;;;;;5095422;28;19991;-73
2021/04/01 04:43:43;;;;;;;;;;;11.00;99.90;;;;;;5094971;28;19908;-71
2021/04/01 04:46:08;;;;;;;;;;;11.00;99.90;;;;;;5095564;28;19923;-72
2021/04/01 04:48:34;;;;;;;;;;;10.90;99.90;;;;;;5097749;28;19910;-71
2021/04/01 04:50:59;;;;;;;;;;;10.80;99.90;;;;;;5098650;28;19953;-71
2021/04/01 04:53:26;;;;;;;;;;;10.60;99.90;;;;;;5097895;28;19908;-71
2021/04/01 04:58:43;;;;;;;;;;;10.60;99.90;;;;;;5096243;28;19948;-75
2021/04/01 05:06:42;;;;;;;;;;;10.50;99.90;;;;;;5094576;28;20003;-71
2021/04/01 05:09:09;;;;;;;;;;;10.50;99.90;;;;;;5081045;28;20029;-69
2021/04/01 05:11:34;;;;;;;;;;;10.40;99.90;;;;;;5075681;28;20354;-69
2021/04/01 05:14:01;;;;;;;;;;;10.50;99.90;;;;;;5080322;28;19954;-71
2021/04/01 05:16:26;;;;;;;;;;;10.60;99.90;;;;;;5094671;28;19904;-72
2021/04/01 05:18:53;;;;;;;;;;;10.60;99.90;;;;;;5094810;28;19911;-71
2021/04/01 05:21:20;;;;;;;;;;;10.60;99.90;;;;;;5094771;28;19911;-71
2021/04/01 05:23:50;;;;;;;;;;;10.60;99.90;;;;;;5094550;28;20014;-72
2021/04/01 05:29:21;;;;;;;;;;;10.80;99.90;;;;;;5086584;28;19947;-72
2021/04/01 05:31:49;;;;;;;;;;;10.90;99.90;;;;;;5094947;28;19911;-70
2021/04/01 05:34:14;;;;;;;;;;;11.10;99.90;;;;;;5094766;28;19908;-78
2021/04/01 05:36:42;;;;;;;;;;;11.10;99.90;;;;;;5094351;28;19914;-72
2021/04/01 05:39:26;;;;;;;;;;;11.30;99.90;;;;;;5095255;28;19904;-71
2021/04/01 05:41:53;;;;;;;;;;;11.30;99.90;;;;;;5094591;28;19938;-72
2021/04/01 05:44:35;;;;;;;;;;;11.50;99.90;;;;;;5094191;28;19911;-70
2021/04/01 06:05:51;;;;;;;;;;;13.00;99.90;;;;;;5075365;28;19915;-74
2021/04/01 06:08:23;;;;;;;;;;;13.20;99.90;;;;;;5093884;28;19935;-70
2021/04/01 06:10:50;;;;;;;;;;;13.30;99.90;;;;;;5094115;28;19991;-70
2021/04/01 06:13:16;;;;;;;;;;;13.50;99.90;;;;;;5093617;28;19915;-73
2021/04/01 06:15:44;;;;;;;;;;;13.70;99.90;;;;;;5093199;28;19911;-73
2021/04/01 06:18:11;;;;;;;;;;;13.90;99.90;;;;;;5092715;28;19912;-73
2021/04/01 06:20:37;;;;;;;;;;;14.00;99.90;;;;;;5093493;28;19916;-73
2021/04/01 06:23:03;;;;;;;;;;;14.10;99.90;;;;;;5092001;28;19980;-73
2021/04/01 06:25:33;;;;;;;;;;;14.30;99.90;;;;;;5092338;28;19916;-72
2021/04/01 06:28:00;;;;;;;;;;;14.50;99.90;;;;;;5074765;28;19912;-71
2021/04/01 06:30:34;;;;;;;;;;;14.50;99.90;;;;;;5092779;28;19915;-76
2021/04/01 06:33:14;;;;;;;;;;;14.60;99.90;;;;;;5091359;28;19916;-72
2021/04/01 06:36:17;;;;;;;;;;;14.60;99.90;;;;;;5060660;28;20315;-73
2021/04/01 06:38:36;;;;;;;;;;;14.70;99.90;;;;;;5085456;28;20003;-72
2021/04/01 06:41:12;;;;;;;;;;;14.90;99.90;;;;;;5090362;28;20549;-72
2021/04/01 06:43:49;;;;;;;;;;;15.10;99.90;;;;;;5088844;28;19904;-73
2021/04/01 06:46:19;;;;;;;;;;;15.10;99.90;;;;;;5089529;28;20393;-71
2021/04/01 06:51:23;;;;;;;;;;;15.30;99.90;;;;;;5084750;28;19908;-69
2021/04/01 06:54:23;;;;;;;;;;;15.40;99.90;;;;;;5071514;28;19904;-75
2021/04/01 06:57:07;;;;;;;;;;;15.50;99.90;;;;;;5089929;28;19904;-74
2021/04/01 06:59:50;;;;;;;;;;;15.70;99.90;;;;;;5066491;28;19908;-68
2021/04/01 07:02:23;;;;;;;;;;;15.70;99.90;;;;;;5091836;28;19983;-71
2021/04/01 07:04:57;;;;;;;;;;;15.90;99.90;;;;;;5092575;28;19943;-76
2021/04/01 07:07:23;;;;;;;;;;;16.00;99.90;;;;;;5074750;28;19916;-71
2021/04/01 07:10:13;;;;;;;;;;;16.20;99.90;;;;;;5063389;28;19904;-72
2021/04/01 07:12:40;;;;;;;;;;;16.30;99.90;;;;;;5087917;28;19943;-71
2021/04/01 07:15:11;;;;;;;;;;;16.30;99.90;;;;;;5089662;28;19908;-73
2021/04/01 07:17:43;;;;;;;;;;;16.30;99.90;;;;;;5090573;28;20320;-72
2021/04/01 07:48:09;;;;;;;;;;;17.20;99.90;;;;;;5085771;28;19931;-77
2021/04/01 07:50:39;;;;;;;;;;;17.40;99.90;;;;;;5080887;28;19905;-70
2021/04/01 07:53:08;;;;;;;;;;;17.70;99.90;;;;;;5060903;28;19904;-73
2021/04/01 07:56:32;;;;;;;;;;;17.60;99.90;;;;;;5085799;28;20392;-74
2021/04/01 08:04:00;;;;;;;;;;;18.00;99.90;;;;;;5100487;28;20377;-74
2021/04/01 08:06:27;;;;;;;;;;;18.00;99.90;;;;;;5068224;28;19927;-73
2021/04/01 08:08:59;;;;;;;;;;;18.20;99.90;;;;;;5091862;28;20365;-74
2021/04/01 08:11:37;;;;;;;;;;;18.40;99.90;;;;;;5072221;28;20002;-73
2021/04/01 08:14:04;;;;;;;;;;;18.50;97.10;;;;;;5094980;28;19918;-72
2021/04/01 08:16:35;;;;;;;;;;;18.60;99.70;;;;;;5102171;28;19904;-71
2021/04/01 08:19:01;;;;;;;;;;;18.60;99.90;;;;;;5090926;28;19908;-73
2021/04/01 08:21:28;;;;;;;;;;;18.60;98.20;;;;;;5075385;28;19911;-73
2021/04/01 08:24:06;;;;;;;;;;;18.50;98.60;;;;;;5101080;28;19908;-71
2021/04/01 08:26:45;;;;;;;;;;;18.80;97.50;;;;;;5093969;28;19924;-75
2021/04/01 08:34:56;;;;;;;;;;;18.80;96.80;;;;;;5091680;28;19951;-74
2021/04/01 08:37:24;;;;;;;;;;;19.00;96.40;;;;;;5094659;28;20049;-70
2021/04/01 08:39:50;;;;;;;;;;;19.10;96.20;;;;;;5071656;28;19956;-73
2021/04/01 08:42:34;;;;;;;;;;;19.20;91.70;;;;;;5067947;28;20003;-75
2021/04/01 08:48:04;;;;;;;;;;;19.60;92.40;;;;;;5086202;28;19919;-72
2021/04/01 08:50:57;;;;;;;19.38;17.98;;;19.70;93.60;;;;;;5090687;28;20419;-72
2021/04/01 08:53:42;;;;;;;;;;;19.60;90.80;;;;;;5063196;28;20032;-74
2021/04/01 08:56:18;;;;;;;;;;;19.70;85.90;;;;;;5085715;28;19956;-71
2021/04/01 08:58:54;;;;;;;;;;;19.70;89.90;;;;;;5067703;28;19904;-72
2021/04/01 09:01:26;;;;;;;;;;;19.70;87.20;;;;;;5092158;28;19904;-73
2021/04/01 09:03:52;;;;;;;;;;;19.60;88.20;;;;;;5087616;28;19927;-72
2021/04/01 09:06:24;;;;;;;;;;;19.20;91.00;;;;;;5075942;28;19957;-72
2021/04/01 09:09:13;;;;;;;;;;;19.40;93.70;;;;;;5093964;28;19999;-75
2021/04/01 09:11:49;;;;;;;;;;;19.50;90.90;;;;;;5062381;28;19904;-73
2021/04/01 09:14:25;;;;;;;;;;;19.70;91.30;;;;;;5069629;28;19904;-70
2021/04/01 09:17:19;;;;;;;;;;;19.90;89.10;;;;;;5086425;28;19904;-74
2021/04/01 09:19:45;;;;;;;;;;;19.90;90.60;;;;;;5080294;28;20258;-71
2021/04/01 09:22:14;;;;;;;;;;;20.10;91.40;;;;;;5094180;28;19910;-71
2021/04/01 09:24:39;;;;;;;;;;;20.40;90.20;;;;;;5092980;28;19904;-71
2021/04/01 09:27:09;;;;;;;;;;;20.50;95.00;;;;;;5094524;28;19935;-72
2021/04/01 09:29:41;;;;;;;;;;;20.50;91.90;;;;;;5079657;28;19905;-73
2021/04/01 09:32:08;;;;;;;;;;;20.30;88.80;;;;;;5064175;28;19958;-71
2021/04/01 09:34:35;;;;;;;;;;;20.30;98.20;;;;;;5071861;28;20012;-72
2021/04/01 09:37:14;;;;;;;;;;;20.50;89.80;;;;;;5094036;28;19911;-72
2021/04/01 09:39:40;;;;;;;;;;;20.60;83.00;;;;;;5093977;28;20365;-72
2021/04/01 09:42:07;;;;;;;;;;;20.50;83.90;;;;;;5075781;28;19959;-70
2021/04/01 09:44:34;;;;;;;;;;;20.50;82.30;;;;;;5093757;28;19908;-73
2021/04/01 09:47:07;;;;;;;;;;;20.50;83.40;;;;;;5055883;28;19965;-73
2021/04/01 09:49:45;;;;;;;;;;;20.40;89.30;;;;;;5087009;28;19908;-71
2021/04/01 09:52:12;;;;;;;;;;;20.30;84.50;;;;;;5080049;28;19904;-70
2021/04/01 09:54:41;;;;;;;;;;;20.60;81.40;;;;;;5093724;28;20300;-74
2021/04/01 09:57:08;;;;;;;;;;;20.60;78.80;;;;;;5075184;28;19965;-69
2021/04/01 10:02:06;;;;;;;;;;;20.80;91.40;;;;;;5093767;28;19908;-71
2021/04/01 10:04:35;;;;;;;;;;;20.70;85.90;;;;;;5075721;28;19933;-72
2021/04/01 10:07:11;;;;;;;;;;;20.50;81.00;;;;;;5093187;28;20346;-70
2021/04/01 10:09:47;;;;;;;;;;;20.70;84.80;;;;;;5075360;28;19954;-72
2021/04/01 10:12:15;;;;;;;;;;;20.90;84.80;;;;;;5093705;28;19908;-70
2021/04/01 10:14:50;;;;;;;25.27;22.87;;;21.00;77.90;;;;;;5091994;28;20456;-71
2021/04/01 10:17:17;;;;;;;;;;;21.00;80.50;;;;;;5090061;28;20028;-73
2021/04/01 10:19:47;;;;;;;;;;;21.00;77.80;;;;;;5082352;28;19904;-72
2021/04/01 10:22:29;;;;;;;;;;;20.70;82.40;;;;;;5075648;28;19911;-70
2021/04/01 10:25:22;;;;;;;34.15;28.23;;;21.00;84.50;;;;;;5077856;28;20386;-71
2021/04/01 10:27:56;;;;;;;;;;;21.20;75.50;;;;;;5078386;28;20049;-72
2021/04/01 10:30:28;;;;;;;;;;;21.00;73.90;;;;;;5093450;28;20393;-72
2021/04/01 10:32:58;;;;;;;;;;;20.50;78.60;;;;;;5077769;28;19954;-71
2021/04/01 10:35:29;;;;;;;15.67;14.73;;;20.60;77.40;;;;;;5081063;28;20405;-72
2021/04/01 10:37:58;;;;;;;;;;;20.70;76.40;;;;;;5094601;28;20489;-70
2021/04/01 10:40:24;;;;;;;25.02;22.63;;;21.00;76.80;;;;;;5093476;28;20480;-71
2021/04/01 10:43:01;;;;;;;;;;;21.10;76.60;;;;;;5075272;28;20115;-72
2021/04/01 10:45:33;;;;;;;40.63;30.80;;;21.20;73.70;;;;;;5078623;28;20745;-70
2021/04/01 10:48:05;;;;;;;;;;;21.10;74.90;;;;;;5092899;28;20039;-70
2021/04/01 10:50:32;;;;;;;37.90;29.88;;;21.40;79.80;;;;;;5091601;28;20498;-73
2021/04/01 10:52:58;;;;;;;28.52;25.58;;;21.60;76.00;;;;;;5079699;28;20024;-71
2021/04/01 10:55:29;;;;;;;26.95;24.23;;;21.80;71.20;;;;;;5077741;28;20107;-71
2021/04/01 10:58:06;;;;;;;26.20;23.65;;;21.90;74.00;;;;;;5075013;28;20537;-76
2021/04/01 11:00:32;;;;;;;25.10;22.77;;;21.90;73.70;;;;;;5092997;28;20028;-72
2021/04/01 11:03:00;;;;;;;;;;;22.10;72.40;;;;;;5063165;28;20035;-72
2021/04/01 11:05:26;;;;;;;28.80;25.75;;;21.80;75.70;;;;;;5089381;28;20978;-74
2021/04/01 11:08:05;;;;;;;29.55;26.10;;;21.60;74.70;;;;;;5093664;28;20058;-73
2021/04/01 11:10:33;;;;;;;27.15;24.50;;;21.60;74.20;;;;;;5097493;28;20095;-71
2021/04/01 11:13:00;;;;;;;;;;;21.40;73.00;;;;;;5079335;28;20078;-71
2021/04/01 11:15:28;;;;;;;30.73;27.35;;;21.70;74.60;;;;;;5096445;28;20410;-75
2021/04/01 11:17:59;;;;;;;;;;;21.90;74.30;;;;;;5096976;28;20032;-72
2021/04/01 11:20:27;;;;;;;;;;;22.00;77.60;;;;;;5071871;28;19904;-72
2021/04/01 11:23:09;;;;;;;35.63;29.40;;;22.00;70.40;;;;;;5075052;28;20461;-71
2021/04/01 11:25:36;;;;;;;;;;;22.00;73.40;;;;;;5084271;28;20445;-71
2021/04/01 11:28:02;;;;;;;;;;;22.00;70.70;;;;;;5094955;28;20438;-70
2021/04/01 11:31:01;;;;;;;;;;;22.00;70.70;;;;;;5067970;28;19910;-71
2021/04/01 11:33:28;;;;;;;27.27;24.42;;;22.20;67.60;;;;;;4963821;28;20402;-71
2021/04/01 11:36:06;;;;;;;;;;;22.20;74.30;;;;;;4994816;28;20413;-70
2021/04/01 11:38:45;;;;;;;30.33;26.73;;;22.20;71.30;;;;;;5001446;28;20406;-71
2021/04/01 11:41:13;;;;;;;26.15;23.65;;;22.40;68.20;;;;;;4998895;28;20037;-70
2021/04/01 11:43:39;;;;;;;28.48;25.55;;;22.40;68.90;;;;;;4999187;28;20042;-72
2021/04/01 11:46:25;;;;;;;26.40;23.83;;;22.40;68.30;;;;;;4991423;28;20497;-73
2021/04/01 11:48:52;;;;;;;27.00;24.30;;;22.40;67.70;;;;;;4998050;28;20097;-73
2021/04/01 11:51:19;;;;;;;24.25;22.05;;;22.20;68.30;;;;;;4991088;28;20421;-70
2021/04/01 11:53:46;;;;;;;27.80;25.00;;;22.20;70.20;;;;;;4990683;28;20121;-70
2021/04/01 11:56:12;;;;;;;27.13;24.45;;;22.40;68.20;;;;;;5001978;28;20030;-73
2021/04/01 11:58:39;;;;;;;24.55;22.33;;;22.50;66.60;;;;;;4998756;28;20113;-74
2021/04/01 12:01:11;;;;;;;;;;;22.50;71.50;;;;;;4991437;28;20384;-72
2021/04/01 12:06:06;;;;;;;;;;;22.80;65.20;;;;;;4982950;28;19972;-72
2021/04/01 12:08:32;;;;;;;;;;;22.80;65.70;;;;;;5020052;28;19944;-70
2021/04/01 12:11:00;;;;;;;;;;;22.90;65.70;;;;;;5091204;28;19927;-72
2021/04/01 12:13:26;;;;;;;;;;;23.00;66.90;;;;;;5092556;28;20346;-74
2021/04/01 12:15:52;;;;;;;;;;;23.00;67.50;;;;;;5089429;28;19916;-73
2021/04/01 12:18:19;;;;;;;;;;;22.80;64.40;;;;;;5093191;28;20041;-76
2021/04/01 12:20:45;;;;;;;;;;;22.80;64.00;;;;;;5087949;28;19959;-73
2021/04/01 12:23:21;;;;;;;;;;;22.90;63.40;;;;;;5089323;28;19904;-69
2021/04/01 12:25:48;;;;;;;;;;;22.80;64.40;;;;;;5092051;28;19924;-69
2021/04/01 12:28:22;;;;;;;;;;;22.50;63.20;;;;;;5087289;28;19916;-70
2021/04/01 12:30:50;;;;;;;;;;;22.70;63.50;;;;;;5080934;28;20383;-72
2021/04/01 12:33:18;;;;;;;;;;;22.80;62.90;;;;;;5095032;28;20058;-73
2021/04/01 12:35:50;;;;;;;;;;;22.60;63.10;;;;;;5066740;28;19904;-71
2021/04/01 12:38:24;;;;;;;;;;;22.80;64.10;;;;;;5095288;28;20358;-74
2021/04/01 12:40:50;;;;;;;;;;;23.20;69.20;;;;;;5084049;28;20278;-74
2021/04/01 12:43:15;;;;;;;;;;;23.20;66.60;;;;;;5092277;28;19908;-72
2021/04/01 12:45:41;;;;;;;;;;;23.30;69.50;;;;;;5056893;28;19936;-70
2021/04/01 12:48:08;;;;;;;;;;;23.30;64.90;;;;;;5082602;28;19919;-75
2021/04/01 12:50:36;;;;;;;30.27;27.00;;;23.30;63.70;;;;;;5067763;28;20391;-70
2021/04/01 12:53:02;;;;;;;29.25;26.30;;;23.40;62.70;;;;;;5091818;28;20035;-71
2021/04/01 12:55:56;;;;;;;29.27;26.27;;;23.30;60.90;;;;;;5091152;28;20432;-71
2021/04/01 12:58:23;;;;;;;25.67;23.27;;;23.30;61.10;;;;;;5080825;28;20539;-72
2021/04/01 13:01:00;;;;;;;26.60;24.08;;;23.40;59.90;;;;;;5078000;28;20067;-72
2021/04/01 13:03:27;;;;;;;25.98;23.55;;;23.30;59.50;;;;;;5068194;28;20036;-73
2021/04/01 13:05:57;;;;;;;26.95;24.35;;;23.50;61.50;;;;;;5087112;28;20037;-72
2021/04/01 13:08:50;;;;;;;30.52;27.27;;;23.60;60.30;;;;;;5066462;28;20434;-71
2021/04/01 13:11:17;;;;;;;30.15;26.95;;;23.90;61.60;;;;;;5088316;28;20020;-70
2021/04/01 13:13:44;;;;;;;27.33;24.70;;;24.00;59.90;;;;;;5092307;28;20031;-72
2021/04/01 13:16:10;;;;;;;27.27;24.65;;;24.00;58.60;;;;;;5077643;28;20025;-72
2021/04/01 13:18:36;;;;;;;26.10;23.67;;;24.00;57.50;;;;;;5055772;28;20036;-74
2021/04/01 13:21:04;;;;;;;25.70;23.38;;;24.10;57.90;;;;;;5091900;28;20047;-74
2021/04/01 13:23:43;;;;;;;23.45;21.48;;;24.20;59.20;;;;;;5091708;28;20099;-73
2021/04/01 13:26:13;;;;;;;21.52;19.83;;;24.40;57.10;;;;;;5072803;28;20048;-77
2021/04/01 13:28:42;;;;;;;21.25;19.60;;;24.50;57.60;;;;;;5074959;28;20043;-72
2021/04/01 13:31:16;;;;;;;21.25;19.58;;;24.40;57.20;;;;;;5072592;28;20446;-73
2021/04/01 13:33:57;;;;;;;21.60;19.92;;;24.50;56.20;;;;;;5072155;28;20078;-72
2021/04/01 13:36:34;;;;;;;;;;;24.80;56.60;;;;;;5073430;28;20055;-71
2021/04/01 13:39:05;;;;;;;67.80;39.22;;;24.90;55.80;;;;;;5073069;28;20386;-73
2021/04/01 13:41:46;;;;;;;;;;;25.50;70.70;;;;;;5072656;28;20066;-72
2021/04/01 13:44:13;;;;;;;90.93;44.27;;;25.30;54.70;;;;;;5071661;28;20376;-70
2021/04/01 13:46:42;;;;;;;;;;;25.10;55.40;;;;;;5069295;28;20282;-73
2021/04/01 13:49:17;;;;;;;67.10;38.85;;;25.80;70.60;;;;;;5071911;28;20383;-74
2021/04/01 13:51:52;;;;;;;28.55;25.85;;;27.30;58.50;;;;;;5071755;28;20165;-75
2021/04/01 13:57:07;;;;;;;;;;;25.70;53.00;;;;;;5072266;28;20039;-75
2021/04/01 13:59:54;;;;;;;59.47;37.72;;;25.90;63.30;;;;;;5056593;28;20427;-73
2021/04/01 14:10:41;;;;;;;28.60;26.00;;;27.20;60.30;;;;;;5071419;28;20528;-74
2021/04/01 14:13:08;;;;;;;27.75;25.17;;;26.50;50.80;;;;;;5072103;28;20016;-72
2021/04/01 14:15:34;;;;;;;28.45;25.60;;;26.50;50.60;;;;;;5072061;28;20025;-75
2021/04/01 14:18:01;;;;;;;;;;;26.10;51.00;;;;;;5072180;28;20036;-73
2021/04/01 14:20:27;;;;;;;52.45;35.88;;;25.50;51.90;;;;;;5070944;28;20888;-70
2021/04/01 14:22:53;;;;;;;;;;;24.90;53.20;;;;;;5069809;28;20157;-70
2021/04/01 14:28:16;;;;;;;;;;;23.50;53.10;;;;;;5026148;28;20065;-69
2021/04/01 14:30:42;;;;;;;38.20;30.80;;;;;;;;;;5029532;28;20417;-68
2021/04/01 14:33:12;;;;;;;;;;;23.60;59.70;;;;;;5013936;28;20076;-69
2021/04/01 14:35:38;;;;;;;36.55;30.05;;;23.50;71.10;;;;;;5020199;28;20391;-72
2021/04/01 14:38:05;;;;;;;29.23;26.30;;;23.40;71.30;;;;;;5013990;28;20040;-69
2021/04/01 14:40:54;;;;;;;;;;;23.80;71.00;;;;;;5026254;28;20460;-69
2021/04/01 14:43:23;;;;;;;28.23;25.33;;;23.80;71.90;;;;;;5031713;28;20434;-73
2021/04/01 14:45:50;;;;;;;27.40;24.80;;;23.60;73.70;;;;;;5026394;28;20057;-70
2021/04/01 14:48:16;;;;;;;;;;;24.10;68.20;;;;;;5024404;28;20025;-71
2021/04/01 14:50:42;;;;;;;37.37;30.40;;;23.30;67.80;;;;;;5029035;28;20410;-70
2021/04/01 14:53:21;;;;;;;27.45;24.85;;;23.30;70.00;;;;;;5033705;28;20116;-71
2021/04/01 14:55:47;;;;;;;27.00;24.35;;;23.30;74.60;;;;;;5032245;28;20112;-69
2021/04/01 14:58:15;;;;;;;30.92;27.55;;;23.20;77.50;;;;;;5031991;28;20117;-71
2021/04/01 15:00:43;;;;;;;31.40;28.20;;;22.80;68.20;;;;;;5017157;28;20506;-70
2021/04/01 15:03:09;;;;;;;;;;;22.90;59.60;;;;;;5028294;28;20071;-71
2021/04/01 15:05:36;;;;;;;29.55;26.52;;;23.60;57.40;;;;;;5082242;28;20403;-70
2021/04/01 15:08:06;;;;;;;;;;;25.20;55.10;;;;;;5096543;28;20130;-70
2021/04/01 15:10:33;;;;;;;118.63;48.92;;;27.50;52.30;;;;;;5094054;28;20404;-72
2021/04/01 15:12:59;;;;;;;36.03;29.90;;;28.60;49.90;;;;;;5073049;28;20428;-71
2021/04/01 15:15:25;;;;;;;51.40;35.50;;;29.00;47.10;;;;;;5095741;28;20032;-71
2021/04/01 15:18:06;;;;;;;69.70;40.50;;;29.60;47.20;;;;;;5094041;28;20089;-75
2021/04/01 15:20:32;;;;;;;68.65;41.22;;;29.40;46.40;;;;;;5094893;28;20031;-73
2021/04/01 15:22:57;;;;;;;75.25;42.05;;;30.20;46.40;;;;;;5094890;28;20035;-71
2021/04/01 15:25:24;;;;;;;70.53;41.05;;;29.50;45.10;;;;;;5094835;28;20059;-69
2021/04/01 15:27:49;;;;;;;67.15;40.85;;;29.30;46.00;;;;;;5089646;28;20044;-69
2021/04/01 15:30:16;;;;;;;65.78;39.85;;;29.10;46.60;;;;;;5087074;28;20032;-70
2021/04/01 15:32:43;;;;;;;66.35;40.55;;;28.90;45.70;;;;;;5051538;28;20029;-70
2021/04/01 15:35:10;;;;;;;70.18;41.28;;;29.10;45.00;;;;;;5093782;28;20040;-71
2021/04/01 15:37:37;;;;;;;71.85;41.92;;;28.90;45.10;;;;;;5092959;28;20734;-72
2021/04/01 15:40:05;;;;;;;74.15;42.00;;;28.60;45.20;;;;;;5092839;28;20070;-72
2021/04/01 15:42:35;;;;;;;71.32;41.40;;;28.40;45.40;;;;;;5091713;28;20024;-73
2021/04/01 15:45:04;;;;;;;62.92;39.30;;;29.10;44.50;;;;;;5075213;28;20385;-70